Time;durP1;ratioP1;P1;durP2;ratioP2;P2;SDS_P1;SDS_P2;PMS_P1;PMS_P2;Temp;Humidity;BMP_temperature;BMP_pressure;BME280_temperature;BME280_humidity;BME280_pressure;Samples;Min_cycle;Max_cycle;Signal;HPM_P1;HPM_P2
2023/04/27 00:00:37;;;;;;;3.60;1.70;;;16.10;96.70;;;;;;4963157;28;20462;-73
2023/04/27 00:03:06;;;;;;;2.20;1.05;;;16.10;96.70;;;;;;4962010;28;20043;-72
2023/04/27 00:05:35;;;;;;;2.47;1.40;;;16.10;96.70;;;;;;4964733;28;20149;-72
2023/04/27 00:08:03;;;;;;;5.25;1.75;;;16.10;96.70;;;;;;4963048;28;20138;-73
2023/04/27 00:10:33;;;;;;;2.38;1.10;;;16.20;96.70;;;;;;4964417;28;20037;-72
2023/04/27 00:13:02;;;;;;;3.47;1.60;;;15.90;96.70;;;;;;4964183;28;20058;-72
2023/04/27 00:15:30;;;;;;;3.42;1.40;;;15.80;96.70;;;;;;4964016;28;20117;-72
2023/04/27 00:17:58;;;;;;;3.20;1.90;;;15.90;96.70;;;;;;4964044;28;20043;-72
2023/04/27 00:20:27;;;;;;;5.40;1.25;;;16.00;96.70;;;;;;4962900;28;20541;-72
2023/04/27 00:22:55;;;;;;;6.90;1.75;;;15.80;96.70;;;;;;4962140;28;20499;-72
2023/04/27 00:25:23;;;;;;;2.58;1.15;;;15.80;96.70;;;;;;4964227;28;20166;-72
2023/04/27 00:27:53;;;;;;;2.03;1.15;;;15.80;96.70;;;;;;4964225;28;20038;-72
2023/04/27 00:30:21;;;;;;;3.45;1.40;;;15.70;96.70;;;;;;4963113;28;20058;-73
2023/04/27 00:32:49;;;;;;;4.57;1.40;;;15.70;96.70;;;;;;4962611;28;20058;-72
2023/04/27 00:35:18;;;;;;;2.97;1.17;;;15.60;96.70;;;;;;4984182;28;20059;-72
2023/04/27 00:37:46;;;;;;;2.85;1.48;;;15.50;96.70;;;;;;4958937;28;20071;-73
2023/04/27 00:40:14;;;;;;;3.45;1.48;;;15.50;96.70;;;;;;4962309;28;20054;-72
2023/04/27 00:42:42;;;;;;;1.92;1.17;;;15.40;96.70;;;;;;4962970;28;20129;-71
2023/04/27 00:45:13;;;;;;;2.50;1.08;;;15.30;96.70;;;;;;4946913;28;20097;-73
2023/04/27 00:47:42;;;;;;;3.97;1.40;;;15.40;96.70;;;;;;4960881;28;20121;-72
2023/04/27 00:50:10;;;;;;;2.22;1.10;;;15.30;96.70;;;;;;4963594;28;20090;-72
2023/04/27 00:52:39;;;;;;;3.65;1.10;;;15.30;96.70;;;;;;4945553;28;20094;-72
2023/04/27 00:55:08;;;;;;;4.78;1.30;;;15.30;96.70;;;;;;4965752;28;20579;-72
2023/04/27 00:57:37;;;;;;;2.58;1.30;;;15.20;96.70;;;;;;4962184;28;20053;-72
2023/04/27 01:00:06;;;;;;;2.95;1.20;;;15.20;96.70;;;;;;4962634;28;20049;-72
2023/04/27 01:02:36;;;;;;;2.97;1.00;;;15.20;96.70;;;;;;4962143;28;20085;-73
2023/04/27 01:05:05;;;;;;;2.50;1.17;;;15.00;96.70;;;;;;4959630;28;20061;-72
2023/04/27 01:07:36;;;;;;;1.73;1.20;;;14.90;96.70;;;;;;4964870;28;20177;-72
2023/04/27 01:10:06;;;;;;;2.40;1.10;;;14.90;96.70;;;;;;4963338;28;20125;-73
2023/04/27 01:12:35;;;;;;;2.75;1.13;;;15.00;96.70;;;;;;4961660;28;20043;-72
2023/04/27 01:15:06;;;;;;;5.75;1.30;;;15.00;96.70;;;;;;4962432;28;20093;-73
2023/04/27 01:17:36;;;;;;;1.90;1.10;;;14.90;96.70;;;;;;4963503;28;20066;-74
2023/04/27 01:20:09;;;;;;;3.13;1.05;;;14.70;96.70;;;;;;4961780;28;20704;-72
2023/04/27 01:22:38;;;;;;;4.15;1.20;;;14.70;96.70;;;;;;4944138;28;20074;-72
2023/04/27 01:25:08;;;;;;;3.25;1.23;;;14.80;96.70;;;;;;4961441;28;20050;-72
2023/04/27 01:27:36;;;;;;;4.32;1.10;;;14.80;96.70;;;;;;4963116;28;20043;-73
2023/04/27 01:30:06;;;;;;;1.98;1.27;;;14.70;96.70;;;;;;4963134;28;20066;-73
2023/04/27 01:32:40;;;;;;;3.53;1.58;;;14.60;96.70;;;;;;4962207;28;20046;-73
2023/04/27 01:35:09;;;;;;;3.05;1.15;;;14.60;96.70;;;;;;4960169;28;20047;-73
2023/04/27 01:37:37;;;;;;;2.05;1.45;;;14.50;96.70;;;;;;4963026;28;20129;-72
2023/04/27 01:40:08;;;;;;;3.72;1.20;;;14.30;96.70;;;;;;4961493;28;20046;-74
2023/04/27 01:42:37;;;;;;;3.40;1.25;;;14.30;96.70;;;;;;4963151;28;20113;-73
2023/04/27 01:45:09;;;;;;;3.97;1.45;;;14.50;96.70;;;;;;4962833;28;20385;-73
2023/04/27 01:47:38;;;;;;;4.78;1.52;;;14.60;96.70;;;;;;4960846;28;20059;-73
2023/04/27 01:50:07;;;;;;;3.45;1.50;;;14.70;96.70;;;;;;4961399;28;20062;-73
2023/04/27 01:52:35;;;;;;;4.93;1.73;;;14.70;96.70;;;;;;4948159;28;20070;-73
2023/04/27 01:55:05;;;;;;;2.58;1.08;;;14.60;96.70;;;;;;4964415;28;20038;-72
2023/04/27 01:57:34;;;;;;;2.40;1.05;;;14.40;96.70;;;;;;4981934;28;20051;-72
2023/04/27 02:00:04;;;;;;;2.72;0.82;;;14.50;96.70;;;;;;4945205;28;20078;-73
2023/04/27 02:02:49;;;;;;;2.40;1.02;;;14.60;96.70;;;;;;4964042;28;20051;-72
2023/04/27 02:05:18;;;;;;;3.05;0.93;;;14.50;96.70;;;;;;4990404;28;20046;-72
2023/04/27 02:07:48;;;;;;;2.38;1.05;;;14.50;96.70;;;;;;4965011;28;20054;-73
2023/04/27 02:10:16;;;;;;;2.78;0.82;;;14.50;96.70;;;;;;4949277;28;20070;-72
2023/04/27 02:12:46;;;;;;;1.88;0.90;;;14.40;96.70;;;;;;4965867;28;20053;-73
2023/04/27 02:15:15;;;;;;;3.65;1.08;;;14.20;96.70;;;;;;4964654;28;20397;-73
2023/04/27 02:17:44;;;;;;;2.47;0.85;;;14.10;96.70;;;;;;4965055;28;20106;-72
2023/04/27 02:20:13;;;;;;;2.83;1.20;;;14.20;96.70;;;;;;4964047;28;20420;-72
2023/04/27 02:22:44;;;;;;;3.55;1.45;;;14.30;96.70;;;;;;4964931;28;20050;-73
2023/04/27 02:25:13;;;;;;;2.20;1.00;;;14.30;96.70;;;;;;4964753;28;20381;-72
2023/04/27 02:27:42;;;;;;;3.97;1.30;;;14.30;96.70;;;;;;4947770;28;20043;-72
2023/04/27 02:30:13;;;;;;;2.28;0.85;;;14.20;96.70;;;;;;4945422;28;20051;-73
2023/04/27 02:32:42;;;;;;;2.05;1.02;;;14.20;96.70;;;;;;4964307;28;20045;-72
2023/04/27 02:35:12;;;;;;;3.80;1.13;;;14.30;96.70;;;;;;4963752;28;21637;-72
2023/04/27 02:37:40;;;;;;;2.55;1.10;;;14.30;96.70;;;;;;4964144;28;20047;-72
2023/04/27 02:40:10;;;;;;;3.08;1.20;;;14.30;96.70;;;;;;4963993;28;20071;-73
2023/04/27 02:42:38;;;;;;;1.48;0.90;;;14.20;96.70;;;;;;4964920;28;20043;-72
2023/04/27 02:45:07;;;;;;;2.72;0.88;;;14.20;96.70;;;;;;4948141;28;20055;-72
2023/04/27 02:47:37;;;;;;;5.63;1.50;;;14.10;96.70;;;;;;4964203;28;20051;-72
2023/04/27 02:50:07;;;;;;;2.50;1.00;;;13.90;96.70;;;;;;4964418;28;20051;-72
2023/04/27 02:52:36;;;;;;;1.75;0.95;;;13.70;96.70;;;;;;4948372;28;20077;-73
2023/04/27 02:55:05;;;;;;;2.75;0.90;;;13.70;96.70;;;;;;4948261;28;20489;-73
2023/04/27 02:57:33;;;;;;;1.65;0.90;;;13.60;96.70;;;;;;4963739;28;20045;-72
2023/04/27 03:00:03;;;;;;;2.22;0.93;;;13.50;96.70;;;;;;4965585;28;20046;-72
2023/04/27 03:02:31;;;;;;;2.53;0.93;;;13.60;96.70;;;;;;4961894;28;20616;-72
2023/04/27 03:05:02;;;;;;;2.10;0.98;;;13.50;96.70;;;;;;4964060;28;20050;-72
2023/04/27 03:07:32;;;;;;;2.90;1.20;;;13.40;96.70;;;;;;4947579;28;20311;-72
2023/04/27 03:10:04;;;;;;;1.65;1.00;;;13.40;96.70;;;;;;4964283;28;20157;-72
2023/04/27 03:12:32;;;;;;;2.28;1.23;;;13.30;96.70;;;;;;4963841;28;20635;-72
2023/04/27 03:15:00;;;;;;;1.73;0.82;;;13.20;96.70;;;;;;4988206;28;20046;-72
2023/04/27 03:17:29;;;;;;;2.50;1.02;;;13.10;96.70;;;;;;4989270;28;20057;-73
2023/04/27 03:19:57;;;;;;;1.45;0.80;;;13.00;96.70;;;;;;4964883;28;20105;-72
2023/04/27 03:22:27;;;;;;;1.70;0.95;;;13.00;96.70;;;;;;4965507;28;20043;-73
2023/04/27 03:24:55;;;;;;;1.85;0.73;;;13.30;96.70;;;;;;4963929;28;20038;-72
2023/04/27 03:27:24;;;;;;;2.47;0.75;;;13.50;96.70;;;;;;4963844;28;20137;-72
2023/04/27 03:29:52;;;;;;;2.60;1.00;;;13.70;96.70;;;;;;4963461;28;20034;-72
2023/04/27 03:32:21;;;;;;;2.13;0.80;;;13.60;96.70;;;;;;4963503;28;20080;-71
2023/04/27 03:34:49;;;;;;;3.85;1.00;;;13.40;96.70;;;;;;4964414;28;20047;-72
2023/04/27 03:37:17;;;;;;;1.70;0.82;;;13.60;96.70;;;;;;4963913;28;20150;-72
2023/04/27 03:39:47;;;;;;;2.13;0.85;;;13.50;96.70;;;;;;4964071;28;20061;-72
2023/04/27 03:42:16;;;;;;;1.92;0.80;;;13.50;96.70;;;;;;4963950;28;20409;-72
2023/04/27 03:44:44;;;;;;;1.60;0.80;;;13.50;96.70;;;;;;4964171;28;20613;-72
2023/04/27 03:47:12;;;;;;;2.70;0.90;;;13.40;96.70;;;;;;4963738;28;20039;-72
2023/04/27 03:49:42;;;;;;;1.25;0.57;;;13.40;96.70;;;;;;4948102;28;20531;-72
2023/04/27 03:52:10;;;;;;;1.70;0.68;;;13.30;96.70;;;;;;4947603;28;20030;-72
2023/04/27 03:54:39;;;;;;;1.77;0.70;;;13.30;96.70;;;;;;4963595;28;20911;-72
2023/04/27 03:57:09;;;;;;;2.42;0.75;;;13.30;96.70;;;;;;4964111;28;20047;-72
2023/04/27 03:59:37;;;;;;;2.30;0.70;;;13.30;96.70;;;;;;4964147;28;20134;-72
2023/04/27 04:02:07;;;;;;;1.65;0.50;;;13.30;96.70;;;;;;4963288;28;20043;-73
2023/04/27 04:04:36;;;;;;;1.75;0.60;;;13.30;96.70;;;;;;4964524;28;20046;-72
2023/04/27 04:07:05;;;;;;;1.55;0.60;;;13.40;96.70;;;;;;4963330;28;20042;-72
2023/04/27 04:09:34;;;;;;;1.05;0.50;;;13.30;96.70;;;;;;4964819;28;20038;-72
2023/04/27 04:12:02;;;;;;;1.77;0.60;;;13.30;96.70;;;;;;4962431;28;20054;-72
2023/04/27 04:14:32;;;;;;;1.92;0.50;;;13.30;96.70;;;;;;4959554;28;20039;-72
2023/04/27 04:17:00;;;;;;;3.53;1.35;;;13.30;96.70;;;;;;4962816;28;20153;-72
2023/04/27 04:19:29;;;;;;;1.05;0.70;;;13.20;96.70;;;;;;4947344;28;20591;-71
2023/04/27 04:21:57;;;;;;;1.17;0.70;;;13.20;96.70;;;;;;4960771;28;20062;-72
2023/04/27 04:24:25;;;;;;;1.90;0.88;;;13.20;96.70;;;;;;4964117;28;20069;-73
2023/04/27 04:26:54;;;;;;;1.65;0.85;;;13.20;96.70;;;;;;4947420;28;20480;-72
2023/04/27 04:29:22;;;;;;;1.23;0.68;;;13.10;96.70;;;;;;4962583;28;20038;-72
2023/04/27 04:31:53;;;;;;;2.45;1.08;;;13.20;96.70;;;;;;4962958;28;20050;-72
2023/04/27 04:34:22;;;;;;;3.30;1.33;;;13.30;96.70;;;;;;4962594;28;20058;-72
2023/04/27 04:37:11;;;;;;;1.85;1.02;;;13.20;96.70;;;;;;4964025;28;20686;-72
2023/04/27 04:39:40;;;;;;;1.30;0.80;;;13.30;96.70;;;;;;4961770;28;20051;-72
2023/04/27 04:42:08;;;;;;;4.85;1.00;;;13.40;96.70;;;;;;4946910;28;20500;-72
2023/04/27 04:44:43;;;;;;;3.78;1.30;;;13.30;96.70;;;;;;4962085;28;20509;-72
2023/04/27 04:47:13;;;;;;;2.83;1.33;;;13.10;96.70;;;;;;4963035;28;20046;-72
2023/04/27 04:49:41;;;;;;;2.65;1.48;;;13.20;96.70;;;;;;4983023;28;20651;-72
2023/04/27 04:52:10;;;;;;;2.08;0.80;;;13.30;96.70;;;;;;4961509;28;20067;-73
2023/04/27 04:54:38;;;;;;;3.30;0.75;;;13.30;96.70;;;;;;4984606;28;20138;-73
2023/04/27 04:57:06;;;;;;;2.33;0.90;;;13.20;96.70;;;;;;4962134;28;20842;-72
2023/04/27 04:59:35;;;;;;;3.90;1.33;;;13.20;96.70;;;;;;4962287;28;20058;-72
2023/04/27 05:02:03;;;;;;;3.72;1.45;;;13.30;96.70;;;;;;4961979;28;20054;-72
2023/04/27 05:04:33;;;;;;;2.58;1.40;;;13.40;96.70;;;;;;4961800;28;20088;-72
2023/04/27 05:07:01;;;;;;;2.85;1.40;;;13.50;96.70;;;;;;4983160;28;20641;-72
2023/04/27 05:09:30;;;;;;;2.47;1.38;;;13.60;96.70;;;;;;4946187;28;20150;-72
2023/04/27 05:12:00;;;;;;;3.67;1.35;;;13.50;96.70;;;;;;4962188;28;20082;-72
2023/04/27 05:14:29;;;;;;;3.00;1.30;;;13.50;96.70;;;;;;4961026;28;20456;-72
2023/04/27 05:16:57;;;;;;;2.85;1.00;;;13.50;96.70;;;;;;4963590;28;20046;-72
2023/04/27 05:19:41;;;;;;;2.13;1.10;;;13.60;96.70;;;;;;4960947;28;20046;-72
2023/04/27 05:22:09;;;;;;;1.70;1.08;;;13.60;96.70;;;;;;4962276;28;20644;-73
2023/04/27 05:24:37;;;;;;;2.45;1.20;;;13.60;96.70;;;;;;4961923;28;20406;-72
2023/04/27 05:27:07;;;;;;;2.92;1.10;;;13.70;96.70;;;;;;4963123;28;20043;-72
2023/04/27 05:29:36;;;;;;;3.00;1.08;;;13.70;96.70;;;;;;4963489;28;20643;-72
2023/04/27 05:32:05;;;;;;;4.03;1.20;;;13.70;96.70;;;;;;4961340;28;20520;-72
2023/04/27 05:34:35;;;;;;;4.75;1.30;;;13.60;96.70;;;;;;4960997;28;20046;-72
2023/04/27 05:37:04;;;;;;;3.17;1.00;;;13.60;96.70;;;;;;4962829;28;20047;-72
2023/04/27 05:39:32;;;;;;;3.40;1.25;;;13.70;96.70;;;;;;4963367;28;20734;-72
2023/04/27 05:42:01;;;;;;;3.92;1.60;;;13.60;96.70;;;;;;4957309;28;20047;-73
2023/04/27 05:44:30;;;;;;;4.28;1.58;;;13.80;96.70;;;;;;4949471;28;20138;-72
2023/04/27 05:46:58;;;;;;;2.50;1.60;;;13.60;96.70;;;;;;4962594;28;20109;-72
2023/04/27 05:49:26;;;;;;;4.75;1.17;;;13.70;96.70;;;;;;4962043;28;20042;-72
2023/04/27 05:51:57;;;;;;;3.78;2.22;;;13.90;96.70;;;;;;4963083;28;20038;-72
2023/04/27 05:54:26;;;;;;;4.30;1.83;;;13.70;96.70;;;;;;4962136;28;20051;-73
2023/04/27 05:56:54;;;;;;;2.78;1.20;;;13.80;96.70;;;;;;4963056;28;20073;-71
2023/04/27 05:59:22;;;;;;;3.28;1.42;;;13.80;96.70;;;;;;4961740;28;20066;-72
2023/04/27 06:01:50;;;;;;;3.95;1.25;;;13.90;96.70;;;;;;4957976;28;20568;-73
2023/04/27 06:04:19;;;;;;;3.28;1.35;;;13.80;96.70;;;;;;4963744;28;20047;-72
2023/04/27 06:06:47;;;;;;;3.33;1.58;;;13.80;96.70;;;;;;4961602;28;20505;-72
2023/04/27 06:09:17;;;;;;;3.35;1.23;;;13.80;96.70;;;;;;4961429;28;20067;-71
2023/04/27 06:11:46;;;;;;;2.17;1.30;;;13.80;96.70;;;;;;4961738;28;20053;-72
2023/04/27 06:14:15;;;;;;;2.78;1.52;;;13.90;96.70;;;;;;4960786;28;20046;-72
2023/04/27 06:16:43;;;;;;;2.72;1.42;;;13.90;96.70;;;;;;4958582;28;20158;-73
2023/04/27 06:19:11;;;;;;;4.57;1.75;;;14.00;96.70;;;;;;4960279;28;20051;-72
2023/04/27 06:21:40;;;;;;;2.38;1.67;;;14.10;96.70;;;;;;4960464;28;20139;-72
2023/04/27 06:24:08;;;;;;;4.40;1.80;;;14.10;96.70;;;;;;4961891;28;20508;-73
2023/04/27 06:26:39;;;;;;;6.38;1.70;;;14.10;96.70;;;;;;4963490;28;20042;-74
2023/04/27 06:29:07;;;;;;;4.82;1.70;;;14.20;96.70;;;;;;4961183;28;20054;-73
2023/04/27 06:31:36;;;;;;;2.63;1.55;;;14.20;96.70;;;;;;4962452;28;20055;-74
2023/04/27 06:34:06;;;;;;;3.15;1.77;;;14.30;96.70;;;;;;4969744;28;20047;-73
2023/04/27 06:36:35;;;;;;;4.97;1.67;;;14.40;96.70;;;;;;4961238;28;20051;-74
2023/04/27 06:39:02;;;;;;;3.63;1.90;;;14.50;96.70;;;;;;4961044;28;20098;-73
2023/04/27 06:41:32;;;;;;;5.47;2.88;;;14.50;96.70;;;;;;4961259;28;20062;-74
2023/04/27 06:44:01;;;;;;;5.28;2.33;;;14.60;96.70;;;;;;4961119;28;20082;-73
2023/04/27 06:46:29;;;;;;;4.13;2.85;;;14.60;96.70;;;;;;4962691;28;20174;-73
2023/04/27 06:48:57;;;;;;;5.65;2.63;;;14.60;96.70;;;;;;4962357;28;20101;-73
2023/04/27 06:51:25;;;;;;;6.35;2.90;;;14.70;96.70;;;;;;4965083;28;20051;-73
2023/04/27 06:53:56;;;;;;;5.75;2.83;;;14.80;96.70;;;;;;4965677;28;20066;-73
2023/04/27 06:56:24;;;;;;;4.47;2.70;;;14.70;96.70;;;;;;4961104;28;20081;-73
2023/04/27 06:58:52;;;;;;;7.90;3.60;;;14.70;96.70;;;;;;4949094;28;20101;-73
2023/04/27 07:01:21;;;;;;;5.70;3.10;;;14.80;96.70;;;;;;4966379;28;20062;-71
2023/04/27 07:03:50;;;;;;;4.53;2.83;;;14.90;96.70;;;;;;4948090;28;20043;-72
2023/04/27 07:06:18;;;;;;;4.93;3.28;;;14.90;96.70;;;;;;4966643;28;20055;-73
2023/04/27 07:08:46;;;;;;;7.03;3.00;;;15.00;96.70;;;;;;4964003;28;20054;-73
2023/04/27 07:11:15;;;;;;;4.00;1.95;;;15.00;96.70;;;;;;4963898;28;20050;-73
2023/04/27 07:13:43;;;;;;;3.97;2.33;;;15.10;96.70;;;;;;4948448;28;20105;-73
2023/04/27 07:16:11;;;;;;;5.63;2.35;;;15.20;96.70;;;;;;4963629;28;20140;-73
2023/04/27 07:18:40;;;;;;;3.38;1.75;;;15.30;96.70;;;;;;4965914;28;20063;-73
2023/04/27 07:21:10;;;;;;;3.08;1.90;;;15.30;96.70;;;;;;4966232;28;20035;-73
2023/04/27 07:23:39;;;;;;;3.67;1.52;;;15.40;96.70;;;;;;4964170;28;20047;-73
2023/04/27 07:26:07;;;;;;;3.42;1.60;;;15.50;96.70;;;;;;4965391;28;20507;-73
2023/04/27 07:28:35;;;;;;;3.28;1.42;;;15.50;96.70;;;;;;4963391;28;20043;-72
2023/04/27 07:31:23;;;;;;;3.55;1.75;;;15.50;96.70;;;;;;4964131;28;20055;-73
2023/04/27 07:33:53;;;;;;;2.42;1.67;;;15.60;96.70;;;;;;4947375;28;20054;-73
2023/04/27 07:36:21;;;;;;;3.60;1.67;;;15.70;96.70;;;;;;4963749;28;20058;-73
2023/04/27 07:38:49;;;;;;;4.13;1.40;;;15.70;96.70;;;;;;4960253;28;20050;-73
2023/04/27 07:41:19;;;;;;;4.40;1.52;;;15.80;96.70;;;;;;4956323;28;20047;-73
2023/04/27 07:43:47;;;;;;;3.15;1.75;;;15.80;96.70;;;;;;4948008;28;20042;-73
2023/04/27 07:46:15;;;;;;;4.38;1.42;;;15.80;96.70;;;;;;4974265;28;20062;-73
2023/04/27 07:48:43;;;;;;;3.67;1.48;;;15.90;96.70;;;;;;4964628;28;20500;-72
2023/04/27 07:51:14;;;;;;;2.75;1.55;;;16.00;96.70;;;;;;4964926;28;20407;-73
2023/04/27 07:53:42;;;;;;;2.70;1.52;;;16.00;96.70;;;;;;4966272;28;20126;-73
2023/04/27 07:56:13;;;;;;;4.28;1.65;;;16.10;96.70;;;;;;4963526;28;20412;-73
2023/04/27 07:58:41;;;;;;;2.92;1.50;;;16.10;96.70;;;;;;4963496;28;20046;-74
2023/04/27 08:01:08;;;;;;;1.80;1.10;;;16.10;96.70;;;;;;4963645;28;20158;-72
2023/04/27 08:03:37;;;;;;;3.72;1.45;;;16.20;96.70;;;;;;4964425;28;20051;-73
2023/04/27 08:06:05;;;;;;;3.33;1.23;;;16.20;96.70;;;;;;4962887;28;20050;-73
2023/04/27 08:08:35;;;;;;;4.43;1.35;;;16.30;96.70;;;;;;4962982;28;21220;-72
2023/04/27 08:11:03;;;;;;;3.13;1.30;;;16.30;96.70;;;;;;4963612;28;20051;-72
2023/04/27 08:13:34;;;;;;;4.03;1.23;;;16.40;96.70;;;;;;4963528;28;20473;-73
2023/04/27 08:16:01;;;;;;;4.15;1.42;;;16.50;96.70;;;;;;4963497;28;20465;-73
2023/04/27 08:18:29;;;;;;;2.63;1.50;;;16.50;96.70;;;;;;4961840;28;20050;-73
2023/04/27 08:20:57;;;;;;;8.73;1.52;;;16.60;96.70;;;;;;4964534;28;20118;-73
2023/04/27 08:23:27;;;;;;;5.07;1.40;;;16.60;96.70;;;;;;4963194;28;20804;-73
2023/04/27 08:25:56;;;;;;;3.00;1.42;;;16.80;96.70;;;;;;4964174;28;20038;-72
2023/04/27 08:28:24;;;;;;;5.15;1.50;;;16.90;96.70;;;;;;4963444;28;20053;-72
2023/04/27 08:30:52;;;;;;;2.28;1.00;;;17.00;96.70;;;;;;4963390;28;20042;-72
2023/04/27 08:33:20;;;;;;;3.83;1.20;;;17.10;96.70;;;;;;4983676;28;20101;-72
2023/04/27 08:35:48;;;;;;;5.70;1.40;;;17.20;96.70;;;;;;4964242;28;20142;-72
2023/04/27 08:38:16;;;;;;;4.75;1.52;;;17.30;96.70;;;;;;4963945;28;20054;-72
2023/04/27 08:40:44;;;;;;;4.60;1.48;;;17.40;96.70;;;;;;4963859;28;20505;-73
2023/04/27 08:43:13;;;;;;;3.20;1.52;;;17.40;96.70;;;;;;4962606;28;20538;-72
2023/04/27 08:45:47;;;;;;;6.60;1.77;;;17.50;96.70;;;;;;4963298;28;20050;-72
2023/04/27 08:48:15;;;;;;;2.90;1.25;;;17.60;96.70;;;;;;4971588;28;20059;-72
2023/04/27 08:50:44;;;;;;;4.57;1.30;;;17.70;96.70;;;;;;4964352;28;20531;-73
2023/04/27 08:53:18;;;;;;;4.50;1.30;;;17.80;96.70;;;;;;4962313;28;20061;-73
2023/04/27 08:55:46;;;;;;;2.95;1.20;;;17.90;96.70;;;;;;4962199;28;20046;-74
2023/04/27 08:58:15;;;;;;;3.00;1.40;;;18.10;96.70;;;;;;4961558;28;20579;-73
2023/04/27 09:00:44;;;;;;;4.07;1.40;;;18.20;96.70;;;;;;4963596;28;20074;-73
2023/04/27 09:03:22;;;;;;;2.25;0.95;;;18.30;96.70;;;;;;4962076;28;20046;-73
2023/04/27 09:05:50;;;;;;;2.92;1.15;;;18.20;96.70;;;;;;4962324;28;20047;-75
2023/04/27 09:08:42;;;;;;;4.20;0.93;;;18.20;96.70;;;;;;4961985;28;20061;-73
2023/04/27 09:11:11;;;;;;;3.17;0.90;;;18.20;96.70;;;;;;4963274;28;20497;-73
2023/04/27 09:13:45;;;;;;;2.53;0.90;;;18.30;96.70;;;;;;4946379;28;20047;-73
2023/04/27 09:16:13;;;;;;;2.08;0.95;;;18.30;96.70;;;;;;4962328;28;20552;-74
2023/04/27 09:18:42;;;;;;;5.07;1.10;;;18.40;96.70;;;;;;4961423;28;20042;-73
2023/04/27 09:21:20;;;;;;;3.95;1.10;;;18.60;96.70;;;;;;4962065;28;20153;-73
2023/04/27 09:23:48;;;;;;;4.32;0.93;;;18.80;96.70;;;;;;4963491;28;20409;-73
2023/04/27 09:26:20;;;;;;;2.80;1.17;;;18.70;96.70;;;;;;4963992;28;20042;-74
2023/04/27 09:28:52;;;;;;;4.13;0.93;;;18.60;96.70;;;;;;4963502;28;20069;-73
2023/04/27 09:31:21;;;;;;;2.83;0.50;;;18.60;96.70;;;;;;4955176;28;20046;-73
2023/04/27 09:33:54;;;;;;;3.17;0.82;;;18.60;96.70;;;;;;4963289;28;20047;-73
2023/04/27 09:36:23;;;;;;;3.78;0.80;;;18.70;96.70;;;;;;4961599;28;20073;-73
2023/04/27 09:38:51;;;;;;;3.25;0.77;;;18.80;96.70;;;;;;4961933;28;20041;-73
2023/04/27 09:41:20;;;;;;;1.30;0.50;;;18.80;96.70;;;;;;4961243;28;20101;-72
2023/04/27 09:43:50;;;;;;;3.05;0.70;;;19.00;96.70;;;;;;4961994;28;20046;-73
2023/04/27 09:46:19;;;;;;;1.83;0.68;;;19.10;96.70;;;;;;4967190;28;20050;-73
2023/04/27 09:48:49;;;;;;;3.70;0.82;;;19.30;96.70;;;;;;4963288;28;20046;-73
2023/04/27 09:51:17;;;;;;;3.33;0.82;;;19.50;96.70;;;;;;4961733;28;20055;-73
2023/04/27 09:53:51;;;;;;;2.58;0.88;;;19.70;96.70;;;;;;4965789;28;20046;-73
2023/04/27 09:56:31;;;;;;;3.42;1.05;;;19.80;96.70;;;;;;4963646;28;20105;-73
2023/04/27 09:59:23;;;;;;;3.13;0.77;;;19.80;96.70;;;;;;4963850;28;20054;-73
2023/04/27 10:01:55;;;;;;;1.95;0.80;;;19.80;96.70;;;;;;4953031;28;20504;-73
2023/04/27 10:04:44;;;;;;;2.28;0.75;;;19.90;96.70;;;;;;4962959;28;20057;-73
2023/04/27 10:07:14;;;;;;;4.28;1.02;;;19.90;96.70;;;;;;4962949;28;20053;-73
2023/04/27 10:09:43;;;;;;;5.43;1.30;;;19.90;96.70;;;;;;4963328;28;20047;-72
2023/04/27 10:12:17;;;;;;;2.70;0.80;;;20.20;96.70;;;;;;4961796;28;20485;-74
2023/04/27 10:14:51;;;;;;;3.17;1.02;;;20.30;96.70;;;;;;4961975;28;20043;-72
2023/04/27 10:17:24;;;;;;;5.32;0.90;;;20.40;96.70;;;;;;4962847;28;20126;-73
2023/04/27 10:19:55;;;;;;;2.72;0.88;;;20.50;96.70;;;;;;4961097;28;20057;-72
2023/04/27 10:22:38;;;;;;;4.30;1.05;;;20.70;96.70;;;;;;4962899;28;20043;-72
2023/04/27 10:25:20;;;;;;;2.20;0.75;;;20.80;96.70;;;;;;4966848;28;20047;-72
2023/04/27 10:27:51;;;;;;;2.08;0.90;;;20.70;96.70;;;;;;4962514;28;20039;-72
2023/04/27 10:30:44;;;;;;;2.30;0.90;;;20.90;96.70;;;;;;4966680;28;20057;-72
2023/04/27 10:33:16;;;;;;;4.05;0.93;;;21.00;96.70;;;;;;4948307;28;20113;-72
2023/04/27 10:35:52;;;;;;;4.00;0.80;;;21.00;96.70;;;;;;4949155;28;20058;-72
2023/04/27 10:38:26;;;;;;;4.18;0.98;;;21.20;96.70;;;;;;4963638;28;20043;-72
2023/04/27 10:40:55;;;;;;;2.95;1.17;;;21.30;96.70;;;;;;4965525;28;20051;-72
2023/04/27 10:43:26;;;;;;;3.45;1.00;;;21.50;96.70;;;;;;4964905;28;20051;-72
2023/04/27 10:46:06;;;;;;;3.95;1.20;;;21.50;96.70;;;;;;4966298;28;20047;-72
2023/04/27 10:48:36;;;;;;;4.20;1.05;;;21.60;96.70;;;;;;4960038;28;20126;-72
2023/04/27 10:51:04;;;;;;;4.32;1.30;;;21.60;96.70;;;;;;4962769;28;21225;-71
2023/04/27 10:53:34;;;;;;;4.32;1.15;;;21.70;96.70;;;;;;4967851;28;20038;-73
2023/04/27 10:56:05;;;;;;;5.22;1.20;;;21.60;96.70;;;;;;4966072;28;20121;-72
2023/04/27 10:58:34;;;;;;;1.75;0.75;;;21.70;96.70;;;;;;4960685;28;20239;-72
2023/04/27 11:01:25;;;;;;;3.25;1.10;;;21.90;96.70;;;;;;4965487;28;20078;-73
2023/04/27 11:03:57;;;;;;;3.33;1.20;;;22.20;96.70;;;;;;4966239;28;20122;-73
2023/04/27 11:06:27;;;;;;;3.25;1.33;;;22.20;96.70;;;;;;4963641;28;20077;-71
2023/04/27 11:08:55;;;;;;;5.03;1.20;;;22.30;96.70;;;;;;4964131;28;20457;-72
2023/04/27 11:11:25;;;;;;;4.68;1.33;;;22.60;96.70;;;;;;4964525;28;20047;-72
2023/04/27 11:13:57;;;;;;;3.70;1.33;;;22.60;96.70;;;;;;4964018;28;20054;-73
2023/04/27 11:16:26;;;;;;;3.35;1.08;;;22.60;96.70;;;;;;4946624;28;20417;-72
2023/04/27 11:19:03;;;;;;;4.20;0.90;;;22.50;96.70;;;;;;4954890;28;20511;-72
2023/04/27 11:21:31;;;;;;;1.98;0.98;;;22.60;96.70;;;;;;4958556;28;20051;-71
2023/04/27 11:24:04;;;;;;;3.90;1.10;;;22.90;96.70;;;;;;4963040;28;20042;-73
2023/04/27 11:26:32;;;;;;;2.72;1.30;;;23.00;96.70;;;;;;4963745;28;20058;-72
2023/04/27 11:29:05;;;;;;;6.15;1.10;;;23.10;96.70;;;;;;4965131;28;20686;-72
2023/04/27 11:31:46;;;;;;;5.07;1.00;;;23.20;96.70;;;;;;4964916;28;20054;-72
2023/04/27 11:34:16;;;;;;;3.50;0.90;;;23.20;96.70;;;;;;4962153;28;20097;-72
2023/04/27 11:36:56;;;;;;;4.28;1.20;;;23.30;96.70;;;;;;4963927;28;20050;-72
2023/04/27 11:39:47;;;;;;;3.03;0.90;;;23.30;96.70;;;;;;4972494;28;20198;-70
2023/04/27 11:42:21;;;;;;;3.95;1.27;;;23.20;96.70;;;;;;4962782;28;20076;-71
2023/04/27 11:44:52;;;;;;;1.83;0.95;;;23.30;96.70;;;;;;4963550;28;20219;-71
2023/04/27 11:47:23;;;;;;;2.38;1.10;;;23.20;96.70;;;;;;4964988;28;20043;-71
2023/04/27 11:49:54;;;;;;;3.38;0.90;;;23.20;96.70;;;;;;4960780;28;20478;-71
2023/04/27 11:52:26;;;;;;;3.50;1.10;;;23.20;96.70;;;;;;4963270;28;20746;-71
2023/04/27 11:54:57;;;;;;;3.05;1.00;;;23.20;96.70;;;;;;4969727;28;20438;-71
2023/04/27 11:57:26;;;;;;;2.42;0.82;;;23.30;96.70;;;;;;4946906;28;20479;-71
2023/04/27 11:59:54;;;;;;;2.67;0.93;;;23.40;96.70;;;;;;4963229;28;20539;-71
2023/04/27 12:02:24;;;;;;;2.05;0.85;;;23.40;96.70;;;;;;4955854;28;20054;-71
2023/04/27 12:04:52;;;;;;;1.63;0.93;;;23.40;96.70;;;;;;4963734;28;20117;-72
2023/04/27 12:07:20;;;;;;;2.83;0.90;;;23.40;96.70;;;;;;4960966;28;20035;-71
2023/04/27 12:09:48;;;;;;;1.35;0.70;;;23.60;96.70;;;;;;4964927;28;20564;-72
2023/04/27 12:12:17;;;;;;;5.10;1.10;;;23.60;96.70;;;;;;4946330;28;20135;-72
2023/04/27 12:14:45;;;;;;;4.50;1.02;;;23.60;96.70;;;;;;4963130;28;20058;-71
2023/04/27 12:17:13;;;;;;;4.25;0.95;;;23.80;96.70;;;;;;4963219;28;20049;-71
2023/04/27 12:19:43;;;;;;;2.25;0.70;;;23.90;96.70;;;;;;4964383;28;20043;-71
2023/04/27 12:22:11;;;;;;;3.08;0.90;;;23.70;96.70;;;;;;4962743;28;20046;-71
2023/04/27 12:24:39;;;;;;;3.97;0.93;;;23.70;96.70;;;;;;4963246;28;20121;-71
2023/04/27 12:27:08;;;;;;;4.47;0.73;;;23.60;96.70;;;;;;4962882;28;20066;-72
2023/04/27 12:29:36;;;;;;;2.88;0.73;;;23.40;96.70;;;;;;4966294;28;20461;-71
2023/04/27 12:32:04;;;;;;;2.17;0.65;;;23.50;96.70;;;;;;4964135;28;20046;-71
2023/04/27 12:34:46;;;;;;;3.55;1.02;;;23.70;96.70;;;;;;4957164;28;20075;-71
2023/04/27 12:37:15;;;;;;;4.07;0.80;;;23.80;96.70;;;;;;4961747;28;20217;-71
2023/04/27 12:39:44;;;;;;;2.50;0.93;;;23.70;96.70;;;;;;4962764;28;21152;-72
2023/04/27 12:42:12;;;;;;;5.95;1.30;;;24.00;96.70;;;;;;4963878;28;20073;-72
2023/04/27 12:44:40;;;;;;;4.85;1.10;;;24.10;96.70;;;;;;4958465;28;20039;-71
2023/04/27 12:47:09;;;;;;;2.63;0.77;;;24.20;96.70;;;;;;4961290;28;20770;-73
2023/04/27 12:49:46;;;;;;;4.82;1.20;;;24.30;96.70;;;;;;4963005;28;20042;-71
2023/04/27 12:52:16;;;;;;;3.50;1.00;;;24.40;96.70;;;;;;4962856;28;20039;-71
2023/04/27 12:54:44;;;;;;;3.70;1.05;;;24.60;96.70;;;;;;4970866;28;20046;-71
2023/04/27 12:57:12;;;;;;;3.10;1.05;;;24.90;96.70;;;;;;4961081;28;20057;-71
2023/04/27 12:59:40;;;;;;;3.92;1.00;;;24.80;96.70;;;;;;4963586;28;20489;-71
2023/04/27 13:02:09;;;;;;;3.03;1.10;;;24.70;96.70;;;;;;4961769;28;20043;-73